Vliegveld raporten

 

EHGR - Gilze-Rijen Rnla, Netherlands
Distance from station: WZW 7km
Updated: 18-09-2019 10:55
Zwaar bewolkt
Zwaar bewolkt
 Wind van NW
Wind: NW 6 km/h
Temperatuur: 14°C
Dauwpunt: 8°C
Vochtigheid: 67%
Barometer: 1028 hPa
Clouds: Zwaar bewolkt
Visibility: 10 km
Cloud details: Meestal bewolkt 1097 m
Zwaar bewolkt 1250 m
2019/09/18 08:55 EHGR 180855Z AUTO 32003KT 270V330 9999 BKN036 OVC041 14/08 Q1028 BLU 3133005KT 9999 SCT033
EHEH - Eindhoven Rnlafb, Netherlands
Distance from station: OZO 30km
Updated: 18-09-2019 10:55
Zwaar bewolkt
Zwaar bewolkt
 Wind van varies
Wind: varies 4 km/h
Temperatuur: 15°C
Dauwpunt: 8°C
Vochtigheid: 63%
Barometer: 1028 hPa
Clouds: Zwaar bewolkt
Visibility: 10 km
Cloud details: Enkele wolken 1189 m
Zwaar bewolkt 1737 m
2019/09/18 08:55 EHEH 180855Z AUTO VRB02KT 9999 FEW039 OVC057 15/08 Q1028 BLU VRB02KT CAVOK BECMG 33007KT
EHVK - Volkel Rnlafb, Netherlands
Distance from station: O 48km
Updated: 18-09-2019 10:55
Zwaar bewolkt
Zwaar bewolkt
 Wind van NW
Wind: NW 6 km/h
Temperatuur: 14°C
Dauwpunt: 8°C
Vochtigheid: 67%
Barometer: 1028 hPa
Clouds: Zwaar bewolkt
Visibility: 10 km
Cloud details: Zwaar bewolkt 1646 m
2019/09/18 08:55 EHVK 180855Z AUTO 31003KT 270V350 9999 OVC054 14/08 Q1028 BLU 32006KT 9999 FEW028 BKN055
 
EHWO - Woensdrecht Rnla, Netherlands
Distance from station: WZW 50km
Updated: 18-09-2019 10:55
Helder
Helder
 Wind van NNO
Wind: NNO 6 km/h
Temperatuur: 16°C
Dauwpunt: 6°C
Vochtigheid: 52%
Barometer: 1028 hPa
Clouds: Helder
Visibility: 10 km
2019/09/18 08:55 EHWO 180855Z AUTO 03003KT 210V020 9999 NCD 16/06 Q1028 BLU VRB01KT 9999 FEW035 BKN048 BECMG 35005KT
EHRD - Rotterdam Airpor, Netherlands
Distance from station: NW 56km
Updated: 18-09-2019 10:55
Enkele wolken
Enkele wolken
 Wind van varies
Wind: varies 4 km/h
Temperatuur: 16°C
Dauwpunt: 9°C
Vochtigheid: 63%
Barometer: 1028 hPa
Clouds: Enkele wolken
Visibility: 10 km
Cloud details: Enkele wolken 1311 m
2019/09/18 08:55 EHRD 180855Z AUTO VRB02KT 9999 FEW043 16/09 Q1028 NOSIG
EHDL - Deelen Rnlafb, Netherlands
Distance from station: NO 80km
Updated: 18-09-2019 10:55
Helder
Helder
 Wind van NW
Wind: NW 6 km/h
Temperatuur: 14°C
Dauwpunt: 8°C
Vochtigheid: 67%
Barometer: 1027 hPa
Clouds: Helder
Visibility: 10 km
2019/09/18 08:55 EHDL 180855Z AUTO 31003KT 230V010 9999 NCD 14/08 Q1027 BLU
 
EHAM - Amsterdam/Schiph, Netherlands
Distance from station: N 83km
Updated: 18-09-2019 10:55
Enkele wolken
Enkele wolken
 Wind van N
Wind: N 13 km/h
Temperatuur: 16°C
Dauwpunt: 7°C
Vochtigheid: 55%
Barometer: 1027 hPa
Clouds: Enkele wolken
Visibility: 10 km
Cloud details: Enkele wolken 1219 m
2019/09/18 08:55 EHAM 180855Z 35007KT 320V030 9999 FEW040 16/07 Q1027 NOSIG
EHBK - Zuid-Limburg/Bee, Netherlands
Distance from station: ZO 91km
Updated: 18-09-2019 10:55
Helder
Helder
 Wind van NNW
Wind: NNW 6 km/h
Temperatuur: 13°C
Dauwpunt: 8°C
Vochtigheid: 72%
Barometer: 1028 hPa
Clouds: Helder
Visibility: 10 km
2019/09/18 08:55 EHBK 180855Z AUTO 33003KT 230V040 9999 NCD 13/08 Q1028 NOSIG
EHFS - Vlissingen, Netherlands
Distance from station: W 99km
Updated: 18-09-2019 10:55
Enkele wolken
Enkele wolken
 Wind van N
Wind: N 6 km/h
Temperatuur: 16°C
Dauwpunt: 8°C
Vochtigheid: 59%
Barometer: 1028 hPa
Clouds: Enkele wolken
Visibility: 10 km
Cloud details: Enkele wolken 1158 m
2019/09/18 08:55 EHFS 180855Z AUTO 35003KT 310V070 9999 FEW038/// 16/08 Q1028 W///H///
 
EHSC - Goeree Le Sea, Netherlands
Distance from station: WNW 100km
Updated: 18-09-2019 10:55

 Wind van N
Wind: N 24 km/h
Temperatuur: 15°C
Dauwpunt: 7°C
Vochtigheid: 59%
Barometer: 1028 hPa
Visibility: 10 km
2019/09/18 08:55 EHSC 180855Z AUTO 35013KT 9999 ///////// 15/07 Q1028 W18/H11
EBBL - Kleine-Brogel(Ba, Belgium
Distance from station: ZO 56km
Updated: 18-09-2019 10:25
Enkele wolken
Enkele wolken
 Wind van NNO
Wind: NNO 6 km/h
Temperatuur: 15°C
Dauwpunt: 8°C
Vochtigheid: 63%
Barometer: 1028 hPa
Clouds: Enkele wolken
Visibility: 10 km
Cloud details: Enkele wolken 1372 m
2019/09/18 08:25 EBBL 180825Z 03003KT 9999 FEW045 15/08 Q1028 BLU BLU
EBAW - Antwerp/Deurne, Belgium
Distance from station: ZW 57km
Updated: 18-09-2019 10:50
Enkele wolken
Enkele wolken
 Wind van NO
Wind: NO 6 km/h
Temperatuur: 16°C
Dauwpunt: 4°C
Vochtigheid: 45%
Barometer: 1028 hPa
Clouds: Enkele wolken
Visibility: 10 km
Cloud details: Enkele wolken 1372 m
2019/09/18 08:50 EBAW 180850Z 05003KT 340V120 9999 FEW045 16/04 Q1028 NOSIG
 
EBDT - Schaffen, Belgium
Distance from station: Z 63km
Updated: 18-09-2019 10:25
Meestal bewolkt
Meestal bewolkt
 Wind van varies
Wind: varies 4 km/h
Temperatuur: 13°C
Dauwpunt: 7°C
Vochtigheid: 67%
Barometer: 1028 hPa
Clouds: Meestal bewolkt
Visibility: 10 km
Cloud details: Gedeeltelijk bewolkt 2896 m
Meestal bewolkt 3353 m
Meestal bewolkt 6706 m
2019/09/18 08:25 EBDT 180825Z AUTO VRB02KT 9999 SCT095/// BKN110/// BKN220/// 13/07 Q1028 BLU
EBBR - Brussels Nationa, Belgium
Distance from station: ZZW 83km
Updated: 18-09-2019 10:50
Helder
Helder
 Wind van ONO
Wind: ONO 7 km/h
Temperatuur: 14°C
Dauwpunt: 6°C
Vochtigheid: 59%
Barometer: 1028 hPa
Overzicht: Helder
Visibility: greater than 10 km
2019/09/18 08:50 EBBR 180850Z 06004KT 020V110 CAVOK 14/06 Q1028 NOSIG
EBBE - Beauvechain (baf, Belgium
Distance from station: Z 94km
Updated: 18-09-2019 10:25
Enkele wolken
Enkele wolken
 Wind van NNO
Wind: NNO 7 km/h
Temperatuur: 13°C
Dauwpunt: 6°C
Vochtigheid: 63%
Barometer: 1028 hPa
Clouds: Enkele wolken
Visibility: 10 km
Cloud details: Enkele wolken 7010 m
2019/09/18 08:25 EBBE 180825Z 03004KT 9999 FEW230 13/06 Q1028 BLU BLU
 
EDLV - Niederrhein, Germany
Distance from station: O 79km
Updated: 18-09-2019 10:50
Helder
Helder
 Wind van varies
Wind: varies 6 km/h
Temperatuur: 15°C
Dauwpunt: 8°C
Vochtigheid: 63%
Barometer: 1027 hPa
Overzicht: Helder
Visibility: greater than 10 km
2019/09/18 08:50 EDLV 180850Z VRB03KT CAVOK 15/08 Q1027
ETNG - Geilenkirchen(Na, Germany
Distance from station: ZO 99km
Updated: 18-09-2019 10:50
Helder
Helder
 Wind van N
Wind: N 4 km/h
Temperatuur: 14°C
Dauwpunt: 7°C
Vochtigheid: 63%
Barometer: 1028 hPa
Overzicht: Helder
Visibility: greater than 10 km
2019/09/18 08:50 ETNG 180850Z 01002KT CAVOK 14/07 Q1028 NOSIG